Time;durP1;ratioP1;P1;durP2;ratioP2;P2;SDS_P1;SDS_P2;PMS_P1;PMS_P2;Temp;Humidity;BMP_temperature;BMP_pressure;BME280_temperature;BME280_humidity;BME280_pressure;Samples;Min_cycle;Max_cycle;Signal;HPM_P1;HPM_P2
2023/11/18 00:00:23;;;;;;;22.53;19.90;;;;;;;6.33;95.98;101256.84;4980965;28;20319;-80
2023/11/18 00:02:51;;;;;;;24.73;21.97;;;;;;;6.36;95.56;101238.69;4995418;28;20211;-80
2023/11/18 00:05:18;;;;;;;25.40;22.67;;;;;;;6.16;97.25;101226.41;4995887;28;20210;-81
2023/11/18 00:07:44;;;;;;;25.83;23.27;;;;;;;6.13;98.56;101199.56;4995770;28;20217;-81
2023/11/18 00:10:11;;;;;;;27.67;24.60;;;;;;;6.21;100.00;101164.25;4990135;28;20225;-81
2023/11/18 00:12:41;;;;;;;26.77;24.03;;;;;;;6.42;98.37;101166.19;4997950;28;20238;-81
2023/11/18 00:15:11;;;;;;;29.67;24.40;;;;;;;6.21;98.65;101174.59;4998189;28;20209;-81
2023/11/18 00:17:37;;;;;;;28.37;24.20;;;;;;;6.47;97.78;101169.69;4988258;28;20214;-81
2023/11/18 00:20:09;;;;;;;27.17;23.27;;;;;;;6.61;96.50;101181.91;5004041;28;20231;-79
2023/11/18 00:22:35;;;;;;;25.70;22.17;;;;;;;6.84;96.46;101188.19;5005216;28;20253;-80
2023/11/18 00:25:04;;;;;;;24.40;22.03;;;;;;;7.03;95.50;101204.75;5000438;28;20209;-81
2023/11/18 00:27:31;;;;;;;24.63;22.17;;;;;;;7.14;94.46;101217.84;4975534;28;20211;-81
2023/11/18 00:29:57;;;;;;;23.20;20.90;;;;;;;7.25;93.62;101246.47;4979572;28;20227;-81
2023/11/18 00:32:24;;;;;;;23.13;20.97;;;;;;;7.35;92.14;101263.84;4987803;28;20218;-81
2023/11/18 00:34:50;;;;;;;22.47;20.20;;;;;;;7.43;91.45;101288.16;4996588;28;20231;-81
2023/11/18 00:37:18;;;;;;;22.07;20.17;;;;;;;7.48;91.67;101301.19;4996745;28;20677;-81
2023/11/18 00:39:44;;;;;;;24.30;20.23;;;;;;;7.54;90.30;101315.09;4994289;28;20231;-81
2023/11/18 00:42:11;;;;;;;22.03;19.83;;;;;;;7.62;90.50;101330.75;4996875;28;20207;-81
2023/11/18 00:44:37;;;;;;;26.63;21.17;;;;;;;7.49;89.47;101345.38;4996008;28;20404;-81
2023/11/18 00:47:04;;;;;;;21.33;19.30;;;;;;;7.60;89.82;101353.25;4998875;28;20203;-81
2023/11/18 00:49:30;;;;;;;22.53;20.30;;;;;;;7.61;89.55;101368.00;4999387;28;20204;-81
2023/11/18 00:51:57;;;;;;;21.03;19.03;;;;;;;7.67;89.26;101377.53;4990646;28;20586;-81
2023/11/18 00:54:25;;;;;;;21.40;19.53;;;;;;;7.71;89.13;101392.31;4989124;28;20231;-81
2023/11/18 00:56:51;;;;;;;20.83;18.83;;;;;;;7.76;89.10;101390.63;4999493;28;20228;-81
2023/11/18 00:59:18;;;;;;;19.07;17.47;;;;;;;7.81;88.50;101406.25;4999239;28;20203;-81
2023/11/18 01:01:44;;;;;;;20.27;18.20;;;;;;;7.85;88.46;101419.28;4985262;28;20243;-81
2023/11/18 01:04:10;;;;;;;19.73;17.73;;;;;;;7.90;88.72;101425.38;4999636;28;20200;-81
2023/11/18 01:06:37;;;;;;;19.50;17.90;;;;;;;7.90;88.30;101427.97;4998681;28;20211;-81
2023/11/18 01:09:06;;;;;;;20.00;17.87;;;;;;;7.91;87.91;101428.88;4999605;28;20211;-81
2023/11/18 01:11:35;;;;;;;22.63;20.40;;;;;;;7.60;88.50;101439.00;4999164;28;20230;-81
2023/11/18 01:14:01;;;;;;;20.30;18.40;;;;;;;7.66;88.55;101433.00;4980330;28;20256;-81
2023/11/18 01:16:28;;;;;;;20.57;18.67;;;;;;;7.74;89.04;101429.59;4995488;28;20206;-81
2023/11/18 01:18:55;;;;;;;22.13;20.03;;;;;;;7.78;87.94;101435.69;4999531;28;20317;-81
2023/11/18 01:21:22;;;;;;;22.67;20.37;;;;;;;7.71;87.55;101455.56;4998862;28;20234;-81
2023/11/18 01:23:49;;;;;;;24.00;21.23;;;;;;;7.29;87.65;101467.25;4996392;28;20217;-81
2023/11/18 01:26:16;;;;;;;20.70;18.57;;;;;;;7.40;89.47;101441.41;5008655;28;20210;-79
2023/11/18 01:28:45;;;;;;;24.40;18.67;;;;;;;7.58;88.91;101429.44;5012513;28;20208;-80
2023/11/18 01:31:11;;;;;;;27.00;22.80;;;;;;;7.53;88.67;101444.97;5013072;28;20223;-80
2023/11/18 01:33:39;;;;;;;25.50;22.90;;;;;;;7.66;88.75;101451.19;4999084;28;20235;-80
2023/11/18 01:36:09;;;;;;;22.23;20.33;;;;;;;7.73;88.03;101455.56;4988654;28;20659;-80
2023/11/18 01:38:35;;;;;;;21.83;19.87;;;;;;;7.80;87.85;101465.16;4997635;28;20207;-80
2023/11/18 01:41:02;;;;;;;22.53;20.57;;;;;;;7.87;87.51;101474.78;4981871;28;20235;-81
2023/11/18 01:43:31;;;;;;;20.77;18.77;;;;;;;7.83;87.34;101478.19;4996905;28;20203;-81
2023/11/18 01:46:01;;;;;;;24.57;19.30;;;;;;;7.85;87.79;101475.59;4997588;28;20211;-81
2023/11/18 01:48:29;;;;;;;20.33;18.67;;;;;;;7.85;87.58;101475.59;4996795;28;20235;-81
2023/11/18 01:50:57;;;;;;;22.27;20.27;;;;;;;7.90;87.30;101477.38;4996695;28;20227;-80
2023/11/18 01:53:24;;;;;;;21.00;19.00;;;;;;;7.91;87.46;101473.06;4994438;28;20227;-81
2023/11/18 01:55:52;;;;;;;23.80;21.37;;;;;;;7.92;86.85;101480.84;4997556;28;20223;-80
2023/11/18 01:58:19;;;;;;;24.60;22.27;;;;;;;7.96;86.84;101495.63;4997465;28;20203;-81
2023/11/18 02:00:47;;;;;;;24.67;22.37;;;;;;;7.98;86.08;101516.44;4996599;28;20679;-81
2023/11/18 02:03:15;;;;;;;24.07;21.83;;;;;;;8.01;85.87;101528.59;4997434;28;20210;-81
2023/11/18 02:05:43;;;;;;;23.83;21.73;;;;;;;7.90;85.86;101534.56;4997200;28;20298;-81
2023/11/18 02:08:13;;;;;;;24.60;22.10;;;;;;;7.93;85.46;101545.00;4996569;28;20261;-81
2023/11/18 02:10:49;;;;;;;25.80;23.10;;;;;;;7.76;85.94;101539.63;4997218;28;20672;-80
2023/11/18 02:13:27;;;;;;;24.57;22.17;;;;;;;7.70;86.04;101530.91;4988532;28;20231;-81
2023/11/18 02:15:56;;;;;;;24.83;22.33;;;;;;;7.75;86.38;101537.91;4996486;28;20207;-81
2023/11/18 02:18:25;;;;;;;23.70;21.50;;;;;;;7.76;86.43;101543.97;4997024;28;20207;-81
2023/11/18 02:20:53;;;;;;;23.50;21.37;;;;;;;7.81;86.44;101539.69;4997019;28;20231;-81
2023/11/18 02:23:21;;;;;;;24.67;22.17;;;;;;;7.78;86.18;101549.19;4992727;28;20210;-81
2023/11/18 02:25:49;;;;;;;25.50;22.90;;;;;;;7.81;85.54;101549.19;4996570;28;20200;-81
2023/11/18 02:28:16;;;;;;;25.23;22.47;;;;;;;7.88;85.33;101548.41;4996150;28;20215;-81
2023/11/18 02:30:45;;;;;;;27.13;21.27;;;;;;;7.64;86.32;101542.09;4997087;28;20254;-80
2023/11/18 02:33:18;;;;;;;26.03;21.70;;;;;;;7.79;85.77;101540.50;4996576;28;20250;-81
2023/11/18 02:35:49;;;;;;;25.53;22.97;;;;;;;7.59;86.06;101556.78;4997027;28;20216;-81
2023/11/18 02:38:20;;;;;;;27.17;22.67;;;;;;;7.31;86.98;101545.19;4996324;28;20212;-81
2023/11/18 02:40:48;;;;;;;25.37;22.67;;;;;;;7.36;87.50;101533.13;5017607;23;20239;-84
2023/11/18 02:43:17;;;;;;;28.27;23.67;;;;;;;7.41;87.64;101531.44;4981637;28;20211;-83
2023/11/18 02:45:46;;;;;;;30.83;22.83;;;;;;;7.28;87.35;101526.97;4993300;28;20221;-81
2023/11/18 02:48:14;;;;;;;28.40;22.90;;;;;;;7.36;87.88;101502.81;4993967;28;20213;-82
2023/11/18 02:50:42;;;;;;;25.27;22.43;;;;;;;7.52;88.13;101490.00;4993414;28;20289;-81
2023/11/18 02:53:10;;;;;;;25.27;22.50;;;;;;;7.65;87.47;101501.38;4994084;28;20199;-82
2023/11/18 02:55:36;;;;;;;32.73;23.27;;;;;;;7.70;86.67;101508.38;4982442;28;20238;-84
2023/11/18 02:58:03;;;;;;;28.73;23.37;;;;;;;7.72;86.71;101513.59;4997588;28;20215;-80
2023/11/18 03:00:31;;;;;;;23.93;21.40;;;;;;;7.74;86.60;101509.28;4992403;28;20581;-81
2023/11/18 03:02:57;;;;;;;24.90;22.30;;;;;;;7.78;86.53;101524.06;5000061;28;20214;-84
2023/11/18 03:05:24;;;;;;;25.53;22.67;;;;;;;7.70;85.78;101526.56;5000618;28;20663;-83
2023/11/18 03:07:53;;;;;;;26.43;22.20;;;;;;;7.74;85.47;101527.47;4999446;28;20207;-79
2023/11/18 03:10:21;;;;;;;27.47;22.40;;;;;;;7.78;85.69;101533.59;5001075;28;20788;-80
2023/11/18 03:12:48;;;;;;;24.47;21.87;;;;;;;7.78;85.71;101534.44;5000105;28;20637;-84
2023/11/18 03:15:16;;;;;;;27.57;23.10;;;;;;;7.74;84.96;101532.69;4998072;28;20236;-82
2023/11/18 03:17:44;;;;;;;25.13;22.43;;;;;;;7.75;85.30;101543.09;5000146;28;20203;-82
2023/11/18 03:20:14;;;;;;;29.10;22.07;;;;;;;7.71;84.72;101559.53;4984541;28;20207;-83
2023/11/18 03:22:40;;;;;;;26.37;22.17;;;;;;;7.66;84.24;101560.31;4999730;28;20223;-82
2023/11/18 03:25:08;;;;;;;24.27;21.77;;;;;;;7.63;84.59;101574.16;5000673;28;20200;-82
2023/11/18 03:27:34;;;;;;;31.00;22.23;;;;;;;7.58;85.20;101577.56;4999624;28;20676;-84
2023/11/18 03:30:01;;;;;;;23.00;20.37;;;;;;;7.60;85.08;101555.91;4992033;28;20215;-81
2023/11/18 03:32:27;;;;;;;26.37;23.10;;;;;;;7.61;85.68;101560.28;5000334;28;20662;-83
2023/11/18 03:34:57;;;;;;;24.63;21.60;;;;;;;7.58;85.76;101559.38;4999758;28;20238;-80
2023/11/18 03:37:24;;;;;;;25.43;22.10;;;;;;;7.59;85.64;101554.19;5000087;28;20657;-81
2023/11/18 03:39:50;;;;;;;27.10;21.83;;;;;;;7.62;86.47;101550.75;5000255;28;20210;-81
2023/11/18 03:42:16;;;;;;;28.30;23.30;;;;;;;7.65;85.81;101551.66;4999777;28;20242;-83
2023/11/18 03:44:43;;;;;;;25.67;20.67;;;;;;;7.68;86.34;101550.81;5000206;28;20682;-82
2023/11/18 03:47:10;;;;;;;25.57;22.90;;;;;;;7.65;85.97;101550.75;4999664;28;20211;-82
2023/11/18 03:49:36;;;;;;;31.30;22.93;;;;;;;7.63;86.17;101548.16;5000465;28;20207;-84
2023/11/18 03:52:05;;;;;;;30.97;22.37;;;;;;;7.61;86.43;101531.69;4998578;28;20610;-81
2023/11/18 03:54:32;;;;;;;26.53;22.37;;;;;;;7.62;86.60;101527.34;5000176;28;20612;-81
2023/11/18 03:56:59;;;;;;;27.77;23.77;;;;;;;7.66;87.14;101527.41;4999578;28;20211;-83
2023/11/18 03:59:25;;;;;;;28.23;22.37;;;;;;;7.72;86.84;101526.59;4999716;28;20314;-84
2023/11/18 04:01:52;;;;;;;25.77;22.63;;;;;;;7.72;86.78;101531.78;4999717;28;20235;-81
2023/11/18 04:04:19;;;;;;;30.97;23.47;;;;;;;7.76;86.71;101530.97;5000110;28;20211;-81
2023/11/18 04:06:46;;;;;;;28.13;22.33;;;;;;;7.80;86.30;101532.75;4999571;28;20212;-85
2023/11/18 04:09:14;;;;;;;28.77;22.93;;;;;;;7.76;86.21;101531.84;4996585;28;20682;-82
2023/11/18 04:11:44;;;;;;;27.00;22.00;;;;;;;7.79;86.29;101523.22;4996697;28;20235;-82
2023/11/18 04:14:11;;;;;;;38.40;24.17;;;;;;;7.80;85.41;101535.34;4996228;28;20231;-82
2023/11/18 04:16:38;;;;;;;33.33;23.27;;;;;;;7.80;85.16;101553.53;4996467;28;20238;-83
2023/11/18 04:19:06;;;;;;;32.27;23.33;;;;;;;7.80;86.05;101544.88;4994339;28;20843;-83
2023/11/18 04:21:32;;;;;;;28.03;21.10;;;;;;;7.76;85.95;101536.16;4995081;28;20262;-84
2023/11/18 04:23:58;;;;;;;38.70;23.67;;;;;;;7.75;86.16;101534.44;4996779;28;20206;-81
2023/11/18 04:26:26;;;;;;;27.93;22.53;;;;;;;7.73;86.35;101528.31;4996488;28;20208;-84
2023/11/18 04:28:53;;;;;;;28.50;22.37;;;;;;;7.75;86.38;101522.31;4996020;28;20605;-82
2023/11/18 04:31:19;;;;;;;31.70;22.90;;;;;;;7.80;86.40;101516.28;4996366;28;20234;-81
2023/11/18 04:33:45;;;;;;;29.17;22.10;;;;;;;7.76;86.08;101518.84;4996809;28;20219;-82
2023/11/18 04:36:13;;;;;;;37.70;23.57;;;;;;;7.76;85.63;101511.03;4995995;28;20204;-83
2023/11/18 04:38:40;;;;;;;30.70;23.07;;;;;;;7.73;85.82;101515.31;4996476;28;20215;-81
2023/11/18 04:41:06;;;;;;;31.63;22.67;;;;;;;7.71;85.16;101523.13;4996529;28;20231;-80
2023/11/18 04:43:34;;;;;;;35.10;23.47;;;;;;;7.63;85.47;101529.97;4996126;28;20625;-82
2023/11/18 04:46:01;;;;;;;31.83;23.00;;;;;;;7.51;85.01;101538.50;4996351;28;20210;-80
2023/11/18 04:48:27;;;;;;;29.27;22.40;;;;;;;7.56;84.43;101539.41;4996251;28;20207;-81
2023/11/18 04:50:53;;;;;;;31.60;24.23;;;;;;;7.47;84.49;101547.13;4987606;28;20234;-83
2023/11/18 04:53:20;;;;;;;33.03;24.40;;;;;;;7.47;84.54;101546.22;4995805;28;20262;-83
2023/11/18 04:55:47;;;;;;;36.17;23.97;;;;;;;7.40;84.82;101555.69;4995554;28;20231;-81
2023/11/18 04:58:13;;;;;;;39.57;22.93;;;;;;;7.37;84.77;101558.22;4996034;28;20210;-80
2023/11/18 05:00:42;;;;;;;35.53;23.60;;;;;;;7.35;85.29;101554.75;4995701;28;20216;-85
2023/11/18 05:03:09;;;;;;;34.07;22.77;;;;;;;7.39;85.32;101537.47;4995752;28;20208;-82
2023/11/18 05:05:37;;;;;;;40.53;23.57;;;;;;;7.38;85.18;101547.00;4996095;28;20240;-81
2023/11/18 05:08:06;;;;;;;40.40;24.80;;;;;;;7.34;84.55;101545.22;4995405;28;20665;-83
2023/11/18 05:10:32;;;;;;;39.50;24.83;;;;;;;7.33;84.97;101541.78;4995907;28;21108;-83
2023/11/18 05:12:59;;;;;;;35.93;23.40;;;;;;;7.33;85.40;101544.38;4995406;28;20208;-83
2023/11/18 05:15:25;;;;;;;31.53;22.43;;;;;;;7.33;85.30;101528.78;4995916;28;20237;-81
2023/11/18 05:17:53;;;;;;;33.60;22.73;;;;;;;7.34;84.85;101537.44;4995689;28;20208;-83
2023/11/18 05:20:21;;;;;;;36.40;23.23;;;;;;;7.30;85.40;101538.25;4980231;28;20206;-84
2023/11/18 05:22:47;;;;;;;38.30;24.03;;;;;;;7.26;84.89;101528.69;4994976;28;20223;-83
2023/11/18 05:25:14;;;;;;;33.43;23.67;;;;;;;7.29;84.87;101526.09;4996088;28;20203;-82
2023/11/18 05:27:41;;;;;;;35.43;23.20;;;;;;;7.21;85.19;101522.53;4995283;28;20586;-84
2023/11/18 05:30:09;;;;;;;42.03;23.83;;;;;;;7.22;84.98;101527.75;4995824;28;20208;-82
2023/11/18 05:32:35;;;;;;;36.77;23.17;;;;;;;7.18;84.25;101538.09;4995159;28;20221;-80
2023/11/18 05:35:04;;;;;;;38.57;23.83;;;;;;;7.14;84.74;101542.38;4995343;28;20680;-84
2023/11/18 05:37:35;;;;;;;32.93;23.00;;;;;;;7.08;84.65;101543.16;4987170;28;20213;-83
2023/11/18 05:40:06;;;;;;;35.30;22.13;;;;;;;7.04;84.54;101545.72;4995431;28;20679;-83
2023/11/18 05:42:33;;;;;;;32.60;22.67;;;;;;;6.98;83.84;101551.69;4995006;28;20235;-84
2023/11/18 05:44:59;;;;;;;33.93;21.80;;;;;;;6.97;84.23;101552.53;4995126;28;20201;-82
2023/11/18 05:47:26;;;;;;;35.43;22.37;;;;;;;6.96;83.46;101556.00;4995324;28;20202;-80
2023/11/18 05:49:53;;;;;;;40.50;24.13;;;;;;;6.89;83.67;101560.19;4996139;28;20210;-84
2023/11/18 05:52:22;;;;;;;41.90;23.43;;;;;;;6.86;83.51;101547.19;4994621;28;20720;-83
2023/11/18 05:54:48;;;;;;;38.93;23.83;;;;;;;6.84;83.82;101548.91;4995541;28;20233;-82
2023/11/18 05:57:16;;;;;;;35.17;24.07;;;;;;;6.88;83.83;101549.81;4994744;28;20207;-81
2023/11/18 05:59:42;;;;;;;39.80;23.97;;;;;;;6.89;83.36;101539.44;4994783;28;20214;-84
2023/11/18 06:02:12;;;;;;;42.57;24.60;;;;;;;6.92;83.40;101541.22;4995255;28;20230;-81
2023/11/18 06:04:39;;;;;;;44.73;23.70;;;;;;;6.88;84.14;101542.03;4995907;28;20668;-82
2023/11/18 06:07:06;;;;;;;40.77;24.80;;;;;;;6.85;83.90;101553.22;4986955;28;20215;-80
2023/11/18 06:09:33;;;;;;;42.20;25.10;;;;;;;6.86;84.01;101557.59;4995705;28;20207;-84
2023/11/18 06:12:00;;;;;;;40.03;23.63;;;;;;;6.86;83.17;101559.31;4994861;28;20237;-83
2023/11/18 06:14:27;;;;;;;37.83;22.87;;;;;;;6.86;83.01;101559.31;4995396;28;20230;-80
2023/11/18 06:16:53;;;;;;;33.80;22.77;;;;;;;6.75;83.04;101561.72;4994943;28;20226;-80
2023/11/18 06:19:21;;;;;;;39.77;23.13;;;;;;;6.73;82.80;101572.09;4994652;28;20217;-85
2023/11/18 06:21:47;;;;;;;35.97;22.57;;;;;;;6.72;82.75;101577.28;4995005;28;20239;-83
2023/11/18 06:24:14;;;;;;;42.90;23.43;;;;;;;6.65;82.37;101586.66;4996206;28;20214;-81
2023/11/18 06:26:42;;;;;;;37.83;22.00;;;;;;;6.66;82.81;101588.44;4994648;28;20214;-84
2023/11/18 06:29:08;;;;;;;32.67;22.90;;;;;;;6.63;82.34;101583.16;4995158;28;20214;-83
2023/11/18 06:31:35;;;;;;;35.63;22.83;;;;;;;6.56;83.06;101578.72;4993845;28;20225;-81
2023/11/18 06:34:03;;;;;;;41.23;23.17;;;;;;;6.43;82.72;101580.25;4994452;28;20210;-81
2023/11/18 06:36:30;;;;;;;43.67;22.97;;;;;;;6.46;82.83;101577.72;4986330;28;20281;-84
2023/11/18 06:38:58;;;;;;;39.33;23.73;;;;;;;6.47;83.34;101583.78;4995189;28;20215;-83
2023/11/18 06:41:25;;;;;;;37.90;21.23;;;;;;;6.39;83.19;101578.47;4995164;28;20238;-81
2023/11/18 06:43:56;;;;;;;45.50;22.87;;;;;;;6.38;83.38;101568.06;4994263;28;20563;-84
2023/11/18 06:46:24;;;;;;;38.57;21.90;;;;;;;6.38;83.40;101560.28;4994029;28;20603;-84
2023/11/18 06:48:54;;;;;;;37.30;21.37;;;;;;;6.30;83.89;101555.88;4994428;28;20277;-84
2023/11/18 06:51:23;;;;;;;35.87;21.53;;;;;;;6.33;83.73;101548.13;4993219;28;20714;-83
2023/11/18 06:53:50;;;;;;;37.03;21.43;;;;;;;6.39;84.18;101554.25;4994432;28;20209;-82
2023/11/18 06:56:16;;;;;;;30.70;20.80;;;;;;;6.45;84.68;101556.94;4993868;28;20223;-81
2023/11/18 06:58:44;;;;;;;37.07;21.27;;;;;;;6.46;83.63;101564.75;4993727;28;20690;-85
2023/11/18 07:01:14;;;;;;;33.73;20.47;;;;;;;6.49;84.29;101561.34;4993292;28;20223;-83
2023/11/18 07:03:42;;;;;;;32.03;20.47;;;;;;;6.45;84.19;101554.34;4988839;28;20218;-82
2023/11/18 07:06:09;;;;;;;36.37;22.67;;;;;;;6.43;84.60;101551.72;4994081;28;20614;-83
2023/11/18 07:08:35;;;;;;;30.97;19.90;;;;;;;6.45;84.57;101547.44;4994196;28;20293;-82
2023/11/18 07:11:02;;;;;;;29.10;20.03;;;;;;;6.44;84.87;101545.72;4994038;28;20241;-84
2023/11/18 07:13:28;;;;;;;30.87;20.47;;;;;;;6.49;85.00;101535.41;4993659;28;20213;-80
2023/11/18 07:15:57;;;;;;;34.13;21.43;;;;;;;6.52;85.08;101541.50;4994415;28;20236;-81
2023/11/18 07:18:25;;;;;;;28.17;19.80;;;;;;;6.51;85.42;101538.88;4994353;28;20294;-83
2023/11/18 07:20:54;;;;;;;32.87;21.43;;;;;;;6.50;85.29;101529.34;4994275;28;20854;-84
2023/11/18 07:23:20;;;;;;;44.90;21.40;;;;;;;6.59;85.21;101524.31;4986004;28;20218;-83
2023/11/18 07:25:47;;;;;;;32.10;21.33;;;;;;;6.57;86.03;101513.03;4994224;28;20206;-84
2023/11/18 07:28:14;;;;;;;34.57;21.43;;;;;;;6.54;86.76;101505.19;4993636;28;20211;-83
2023/11/18 07:30:41;;;;;;;34.73;22.43;;;;;;;6.63;86.16;101499.28;4986062;28;20676;-84
2023/11/18 07:33:09;;;;;;;37.13;22.90;;;;;;;6.68;85.98;101505.41;4993972;28;20294;-80
2023/11/18 07:35:36;;;;;;;41.67;24.07;;;;;;;6.72;86.89;101492.50;4994120;28;20235;-83
2023/11/18 07:38:03;;;;;;;38.60;23.00;;;;;;;6.76;87.11;101490.84;4993648;28;20265;-82
2023/11/18 07:40:29;;;;;;;34.17;21.87;;;;;;;6.82;87.24;101471.84;4978177;28;20203;-84
2023/11/18 07:42:56;;;;;;;38.87;23.70;;;;;;;6.81;86.89;101468.41;4994412;28;20223;-84
2023/11/18 07:45:23;;;;;;;32.53;22.60;;;;;;;6.83;87.09;101471.88;4997878;28;20210;-83
2023/11/18 07:47:50;;;;;;;36.83;22.40;;;;;;;6.86;87.32;101466.75;4997653;28;20578;-85
2023/11/18 07:50:19;;;;;;;32.60;21.73;;;;;;;6.91;87.74;101464.19;4997561;28;20208;-82
2023/11/18 07:52:47;;;;;;;41.20;22.30;;;;;;;6.93;87.58;101467.69;4997342;28;20257;-85
2023/11/18 07:55:14;;;;;;;34.77;22.87;;;;;;;6.97;87.24;101485.91;4997366;28;20248;-81
2023/11/18 07:57:40;;;;;;;39.03;22.47;;;;;;;7.03;86.61;101499.81;4997336;28;20673;-85
2023/11/18 08:00:09;;;;;;;36.80;22.63;;;;;;;7.04;86.26;101507.63;4997212;28;20266;-85
2023/11/18 08:02:36;;;;;;;43.93;24.60;;;;;;;7.10;86.06;101507.72;4997447;28;20226;-82
2023/11/18 08:05:06;;;;;;;33.13;20.97;;;;;;;7.11;86.56;101501.66;4997463;28;20214;-81
2023/11/18 08:07:33;;;;;;;40.33;23.27;;;;;;;7.15;86.34;101500.88;4998039;28;20207;-84
2023/11/18 08:10:03;;;;;;;36.37;23.37;;;;;;;7.12;86.34;101498.22;4998602;28;20217;-84
2023/11/18 08:12:30;;;;;;;44.63;25.70;;;;;;;7.18;85.59;101494.81;4997823;28;20663;-84
2023/11/18 08:14:57;;;;;;;38.27;22.83;;;;;;;7.23;85.74;101498.34;4998212;28;20215;-82
2023/11/18 08:17:25;;;;;;;36.43;22.87;;;;;;;7.27;85.83;101501.84;4998021;28;20218;-84
2023/11/18 08:19:51;;;;;;;38.43;22.40;;;;;;;7.27;85.27;101502.72;4998017;28;20277;-84
2023/11/18 08:22:18;;;;;;;45.37;24.27;;;;;;;7.31;85.29;101501.91;4996919;28;20254;-84
2023/11/18 08:24:45;;;;;;;37.87;23.77;;;;;;;7.35;85.38;101500.19;4999097;28;20212;-81
2023/11/18 08:27:13;;;;;;;41.63;23.43;;;;;;;7.36;85.27;101496.78;5000432;28;20250;-84
2023/11/18 08:29:39;;;;;;;40.27;22.63;;;;;;;7.37;84.67;101501.09;4998939;28;20214;-83
2023/11/18 08:32:09;;;;;;;36.33;22.23;;;;;;;7.38;85.08;101501.97;4984021;28;20240;-80
2023/11/18 08:34:37;;;;;;;38.93;23.03;;;;;;;7.40;84.31;101511.53;4980676;28;20210;-80
2023/11/18 08:37:04;;;;;;;38.73;22.70;;;;;;;7.40;84.36;101519.31;4978457;28;20227;-81
2023/11/18 08:39:30;;;;;;;41.07;23.93;;;;;;;7.42;84.29;101521.94;4982114;28;20292;-82
2023/11/18 08:41:57;;;;;;;37.47;21.50;;;;;;;7.43;84.62;101515.88;4980543;28;20269;-83
2023/11/18 08:44:25;;;;;;;33.27;21.33;;;;;;;7.49;84.29;101515.94;4980613;28;20218;-81
2023/11/18 08:46:53;;;;;;;35.07;23.70;;;;;;;7.47;84.28;101522.84;4980160;28;20208;-84
2023/11/18 08:49:21;;;;;;;42.63;25.30;;;;;;;7.50;84.14;101528.09;5043723;23;20231;-82
2023/11/18 08:51:49;;;;;;;35.53;21.77;;;;;;;7.59;83.56;101540.31;4996604;28;20219;-81
2023/11/18 08:54:25;;;;;;;35.20;23.67;;;;;;;7.53;84.19;101544.59;4995165;28;20210;-82
2023/11/18 08:56:52;;;;;;;39.20;23.07;;;;;;;7.61;84.68;101536.00;4996831;28;20326;-81
2023/11/18 08:59:22;;;;;;;42.37;23.03;;;;;;;7.62;84.02;101555.94;4997741;28;20231;-81
2023/11/18 09:01:50;;;;;;;39.77;22.50;;;;;;;7.55;84.85;101555.88;4997072;28;20693;-81
2023/11/18 09:04:19;;;;;;;39.17;23.23;;;;;;;7.53;84.61;101547.19;4997220;28;20207;-81
2023/11/18 09:06:46;;;;;;;34.17;22.00;;;;;;;7.66;85.09;101544.72;4995083;28;20294;-81
2023/11/18 09:09:15;;;;;;;36.60;22.17;;;;;;;7.75;84.67;101542.25;4997702;28;20251;-81
2023/11/18 09:11:42;;;;;;;37.03;22.60;;;;;;;7.80;84.60;101535.34;4997585;28;20219;-82
2023/11/18 09:14:09;;;;;;;31.40;20.40;;;;;;;7.84;83.93;101544.03;4997610;28;20199;-81
2023/11/18 09:16:39;;;;;;;35.47;22.10;;;;;;;7.85;83.34;101554.47;4998404;28;20310;-82
2023/11/18 09:19:07;;;;;;;39.83;21.83;;;;;;;7.87;83.16;101562.25;4997874;28;20251;-81
2023/11/18 09:21:35;;;;;;;36.37;21.23;;;;;;;7.91;82.81;101557.13;4996645;28;20222;-81
2023/11/18 09:24:04;;;;;;;29.43;18.60;;;;;;;7.90;82.69;101572.69;4997638;28;20247;-81
2023/11/18 09:26:31;;;;;;;32.90;19.87;;;;;;;7.91;83.05;101561.47;4997559;28;20214;-81
2023/11/18 09:28:58;;;;;;;30.13;18.23;;;;;;;7.83;82.12;101560.47;4997649;28;20718;-81
2023/11/18 09:31:24;;;;;;;25.07;17.80;;;;;;;7.79;83.24;101554.41;4987745;28;20207;-80
2023/11/18 09:33:52;;;;;;;24.00;17.87;;;;;;;7.93;82.50;101559.75;4997576;28;20219;-81
2023/11/18 09:36:22;;;;;;;24.83;17.30;;;;;;;8.04;82.47;101562.44;4997364;28;20231;-81
2023/11/18 09:38:49;;;;;;;19.97;15.63;;;;;;;8.09;81.76;101578.97;4997470;28;20231;-81
2023/11/18 09:41:16;;;;;;;20.87;14.70;;;;;;;8.03;81.32;101590.19;4997198;28;20207;-81
2023/11/18 09:43:45;;;;;;;19.53;14.87;;;;;;;8.08;81.26;101603.22;4996818;28;20730;-81
2023/11/18 09:46:13;;;;;;;20.60;14.23;;;;;;;8.10;81.05;101604.97;4996715;28;20215;-81
2023/11/18 09:48:45;;;;;;;14.40;12.90;;;;;;;8.18;80.56;101617.19;4996874;28;20247;-81
2023/11/18 09:51:16;;;;;;;21.00;13.57;;;;;;;8.18;80.11;101638.00;4997289;28;20204;-82
2023/11/18 09:53:46;;;;;;;13.00;11.60;;;;;;;8.14;78.72;101663.94;4997058;28;20708;-81
2023/11/18 09:56:26;;;;;;;15.47;12.13;;;;;;;8.26;78.91;101675.34;4997081;28;20285;-81
2023/11/18 09:59:03;;;;;;;12.57;11.27;;;;;;;8.26;78.84;101680.56;5000745;28;20233;-81
2023/11/18 10:01:32;;;;;;;12.87;11.60;;;;;;;8.33;78.96;101684.97;5002687;28;20279;-82
2023/11/18 10:04:06;;;;;;;16.37;10.60;;;;;;;8.46;80.69;101666.06;4996597;28;20222;-81
2023/11/18 10:06:35;;;;;;;14.17;9.83;;;;;;;8.55;82.11;101654.88;4995604;28;20683;-81
2023/11/18 10:09:15;;;;;;;10.10;8.87;;;;;;;8.66;82.93;101610.69;4990369;28;20258;-82
2023/11/18 10:11:42;;;;;;;8.93;7.40;;;;;;;8.59;78.29;101630.59;4988378;28;20211;-81
2023/11/18 10:14:10;;;;;;;8.33;7.53;;;;;;;8.52;76.44;101679.13;5000860;28;20215;-82
2023/11/18 10:16:38;;;;;;;7.60;6.90;;;;;;;8.50;76.90;101742.41;5003544;28;20254;-81
2023/11/18 10:19:08;;;;;;;7.83;7.13;;;;;;;8.49;77.75;101717.25;4997355;28;20222;-81
2023/11/18 10:21:39;;;;;;;7.47;6.77;;;;;;;8.54;79.52;101685.22;4996422;28;20258;-82
2023/11/18 10:24:14;;;;;;;7.33;6.53;;;;;;;8.61;78.19;101659.25;4997273;28;20207;-81
2023/11/18 10:26:41;;;;;;;7.00;6.30;;;;;;;8.63;78.84;101662.75;4996462;28;20226;-81
2023/11/18 10:29:10;;;;;;;6.70;6.00;;;;;;;8.48;75.92;101686.88;4996686;28;20235;-82
2023/11/18 10:31:37;;;;;;;10.60;6.70;;;;;;;8.42;76.08;101713.69;4996635;28;20702;-81
2023/11/18 10:34:04;;;;;;;8.03;6.63;;;;;;;8.41;74.64;101752.72;4996109;28;20259;-81
2023/11/18 10:36:33;;;;;;;8.10;5.60;;;;;;;8.07;72.57;101797.38;4995315;28;20227;-81
2023/11/18 10:39:12;;;;;;;5.97;5.30;;;;;;;8.12;72.38;101823.44;4996753;28;20258;-81
2023/11/18 10:41:43;;;;;;;8.30;7.03;;;;;;;8.27;73.99;101830.59;4995908;28;20211;-81
2023/11/18 10:44:13;;;;;;;9.27;7.43;;;;;;;8.34;74.77;101803.78;4995369;28;20221;-81
2023/11/18 10:46:41;;;;;;;8.03;7.23;;;;;;;8.38;75.20;101791.69;4996289;28;20627;-81
2023/11/18 10:49:09;;;;;;;7.47;6.13;;;;;;;8.39;74.59;101785.63;4996539;28;20246;-81
2023/11/18 10:51:38;;;;;;;8.87;6.30;;;;;;;8.52;73.41;101801.44;4994570;28;20206;-81
2023/11/18 10:54:13;;;;;;;6.80;6.10;;;;;;;8.68;73.79;101796.38;4997350;28;20212;-83
2023/11/18 10:56:49;;;;;;;6.10;5.50;;;;;;;8.74;73.08;101805.16;4996282;28;20234;-80
2023/11/18 10:59:16;;;;;;;6.97;5.53;;;;;;;8.81;72.75;101816.50;4996289;28;20722;-82
2023/11/18 11:01:44;;;;;;;7.30;5.90;;;;;;;8.86;73.17;101812.22;4997102;28;20239;-83
2023/11/18 11:04:12;;;;;;;8.23;5.93;;;;;;;8.94;72.23;101826.19;4997706;28;20208;-82
2023/11/18 11:06:43;;;;;;;8.20;5.90;;;;;;;9.02;71.99;101827.97;4996263;28;20579;-83
2023/11/18 11:09:16;;;;;;;7.47;6.43;;;;;;;9.10;72.27;101824.59;4997149;28;20909;-85
2023/11/18 11:11:51;;;;;;;6.67;6.07;;;;;;;9.05;71.50;101830.63;4989267;28;20207;-82
2023/11/18 11:14:21;;;;;;;7.93;5.20;;;;;;;9.06;70.55;101835.00;4997246;28;20214;-82
2023/11/18 11:16:54;;;;;;;5.63;4.97;;;;;;;9.11;69.42;101873.22;4997674;28;20219;-82
2023/11/18 11:19:26;;;;;;;6.00;5.50;;;;;;;9.12;69.98;101863.72;5001275;28;20311;-81
2023/11/18 11:22:02;;;;;;;7.40;5.63;;;;;;;9.13;70.21;101874.13;4999507;28;20214;-82